Time;durP1;ratioP1;P1;durP2;ratioP2;P2;SDS_P1;SDS_P2;PMS_P1;PMS_P2;Temp;Humidity;BMP_temperature;BMP_pressure;BME280_temperature;BME280_humidity;BME280_pressure;Samples;Min_cycle;Max_cycle;Signal;HPM_P1;HPM_P2
2023/09/30 00:01:26;;;;;;;8.23;4.05;;;14.60;99.90;;;;;;4999778;28;20021;-83
2023/09/30 00:03:52;;;;;;;8.52;3.72;;;14.60;99.90;;;;;;5033572;28;20048;-83
2023/09/30 00:06:18;;;;;;;7.47;3.70;;;14.60;99.90;;;;;;4999444;28;20106;-83
2023/09/30 00:08:44;;;;;;;7.70;3.60;;;14.60;99.90;;;;;;5016047;28;20028;-83
2023/09/30 00:11:10;;;;;;;8.93;4.93;;;14.60;99.90;;;;;;4999375;28;20476;-83
2023/09/30 00:13:35;;;;;;;10.63;5.40;;;14.60;99.90;;;;;;5015636;28;20022;-83
2023/09/30 00:16:01;;;;;;;10.02;5.05;;;14.60;99.90;;;;;;5015807;28;20084;-83
2023/09/30 00:18:27;;;;;;;11.30;5.10;;;14.50;99.90;;;;;;5015554;28;20120;-83
2023/09/30 00:20:53;;;;;;;9.23;4.20;;;14.60;99.90;;;;;;4999376;28;20037;-82
2023/09/30 00:23:21;;;;;;;10.65;4.25;;;14.60;99.90;;;;;;5000083;28;20030;-82
2023/09/30 00:25:47;;;;;;;7.68;4.22;;;14.60;99.90;;;;;;5006457;28;20017;-82
2023/09/30 00:28:13;;;;;;;7.72;3.90;;;14.60;99.90;;;;;;5024208;28;20048;-83
2023/09/30 00:30:38;;;;;;;7.90;4.07;;;14.60;99.90;;;;;;5040543;28;20018;-82
2023/09/30 00:33:04;;;;;;;8.77;3.85;;;14.60;99.90;;;;;;5040382;28;20033;-83
2023/09/30 00:35:35;;;;;;;7.68;3.78;;;14.60;99.90;;;;;;5023567;28;20032;-83
2023/09/30 00:38:00;;;;;;;9.75;3.67;;;14.60;99.90;;;;;;5023062;28;20010;-80
2023/09/30 00:40:26;;;;;;;9.23;3.63;;;14.60;99.90;;;;;;5016513;28;20060;-82
2023/09/30 00:42:52;;;;;;;8.48;4.05;;;14.60;99.90;;;;;;4999682;28;20025;-83
2023/09/30 00:45:17;;;;;;;8.57;3.95;;;14.50;99.90;;;;;;4999411;28;20125;-82
2023/09/30 00:47:43;;;;;;;6.22;3.80;;;14.50;99.90;;;;;;4999466;28;20028;-82
2023/09/30 00:50:12;;;;;;;8.75;3.65;;;14.50;99.90;;;;;;5015490;28;20092;-82
2023/09/30 00:52:38;;;;;;;7.28;3.67;;;14.50;99.90;;;;;;5015742;28;20116;-82
2023/09/30 00:55:05;;;;;;;6.75;4.00;;;14.50;99.90;;;;;;5032599;28;20032;-83
2023/09/30 00:57:34;;;;;;;7.38;3.83;;;14.50;99.90;;;;;;5032988;28;20041;-82
2023/09/30 01:00:01;;;;;;;9.63;4.03;;;14.60;99.90;;;;;;5032555;28;20058;-83
2023/09/30 01:02:26;;;;;;;8.60;4.00;;;14.50;99.90;;;;;;5015938;28;20025;-82
2023/09/30 01:04:53;;;;;;;8.05;3.70;;;14.50;99.90;;;;;;4998828;28;20117;-83
2023/09/30 01:07:21;;;;;;;7.45;4.05;;;14.50;99.90;;;;;;4998868;28;20072;-83
2023/09/30 01:09:47;;;;;;;7.43;3.80;;;14.40;99.90;;;;;;4999503;28;20437;-83
2023/09/30 01:12:13;;;;;;;7.43;4.13;;;14.50;99.90;;;;;;5015415;28;20064;-83
2023/09/30 01:14:40;;;;;;;6.85;3.47;;;14.50;99.90;;;;;;5015599;28;20025;-83
2023/09/30 01:17:09;;;;;;;10.80;4.00;;;14.40;99.90;;;;;;5033182;28;20028;-82
2023/09/30 01:19:35;;;;;;;8.18;4.10;;;14.40;99.90;;;;;;4999109;28;20025;-83
2023/09/30 01:22:05;;;;;;;9.68;4.22;;;14.40;99.90;;;;;;5015266;28;20430;-82
2023/09/30 01:24:37;;;;;;;8.07;3.85;;;14.30;99.90;;;;;;5015659;28;20357;-83
2023/09/30 01:27:03;;;;;;;5.53;3.65;;;14.30;99.90;;;;;;5015460;28;20021;-83
2023/09/30 01:29:29;;;;;;;6.15;3.42;;;14.30;99.90;;;;;;5015462;28;20083;-83
2023/09/30 01:31:55;;;;;;;8.52;3.92;;;14.30;99.90;;;;;;4982571;28;20048;-83
2023/09/30 01:34:21;;;;;;;6.20;3.92;;;14.30;99.90;;;;;;5018442;28;20044;-83
2023/09/30 01:36:46;;;;;;;6.43;3.58;;;14.30;99.90;;;;;;5036320;28;20147;-82
2023/09/30 01:39:13;;;;;;;8.63;3.80;;;14.20;99.90;;;;;;4985735;28;20408;-82
2023/09/30 01:41:39;;;;;;;6.65;3.92;;;14.20;99.90;;;;;;5036655;28;20073;-82
2023/09/30 01:44:06;;;;;;;9.73;4.38;;;14.20;99.90;;;;;;5002033;28;20040;-82
2023/09/30 01:46:31;;;;;;;6.57;4.00;;;14.20;99.90;;;;;;5018330;28;20033;-83
2023/09/30 01:48:57;;;;;;;7.43;3.70;;;14.10;99.90;;;;;;4985684;28;20117;-82
2023/09/30 01:51:23;;;;;;;8.93;4.30;;;14.10;99.90;;;;;;5001820;28;20032;-82
2023/09/30 01:53:49;;;;;;;9.20;4.47;;;14.10;99.90;;;;;;5018331;28;20033;-82
2023/09/30 01:56:15;;;;;;;7.22;4.68;;;14.10;99.90;;;;;;5018481;28;20361;-82
2023/09/30 01:58:40;;;;;;;8.13;4.30;;;14.10;99.90;;;;;;5018532;28;20025;-82
2023/09/30 02:01:06;;;;;;;8.45;4.85;;;14.10;99.90;;;;;;4985576;28;20045;-83
2023/09/30 02:03:32;;;;;;;8.13;4.07;;;14.10;99.90;;;;;;5018285;28;20029;-83
2023/09/30 02:05:58;;;;;;;8.48;4.30;;;14.10;99.90;;;;;;5036208;28;20033;-83
2023/09/30 02:08:24;;;;;;;6.82;4.47;;;14.10;99.90;;;;;;5019169;28;20373;-83
2023/09/30 02:10:51;;;;;;;7.18;4.10;;;14.10;99.90;;;;;;5026249;28;20016;-83
2023/09/30 02:13:17;;;;;;;6.72;3.90;;;14.00;99.90;;;;;;5042413;28;20048;-83
2023/09/30 02:15:43;;;;;;;6.45;4.10;;;14.00;99.90;;;;;;5042404;28;20022;-82
2023/09/30 02:18:09;;;;;;;6.75;4.57;;;14.00;99.90;;;;;;5008769;28;20028;-82
2023/09/30 02:20:39;;;;;;;8.15;4.30;;;13.90;99.90;;;;;;5021386;28;20026;-83
2023/09/30 02:23:06;;;;;;;8.65;4.05;;;13.90;99.90;;;;;;5018160;28;20120;-83
2023/09/30 02:25:33;;;;;;;8.57;4.47;;;13.90;99.90;;;;;;5035436;28;20233;-82
2023/09/30 02:27:59;;;;;;;7.95;4.20;;;13.90;99.90;;;;;;5035673;28;20056;-82
2023/09/30 02:30:24;;;;;;;8.32;4.07;;;13.90;99.90;;;;;;5017709;28;20057;-82
2023/09/30 02:32:50;;;;;;;8.57;4.57;;;13.90;99.90;;;;;;5001693;28;20075;-82
2023/09/30 02:35:16;;;;;;;8.70;4.47;;;13.90;99.90;;;;;;5016828;28;20068;-82
2023/09/30 02:37:41;;;;;;;8.38;4.68;;;13.90;99.90;;;;;;5000153;28;20025;-83
2023/09/30 02:40:10;;;;;;;8.57;5.03;;;13.90;99.90;;;;;;5016452;28;20053;-83
2023/09/30 02:42:37;;;;;;;7.47;4.97;;;13.90;99.90;;;;;;4985779;28;20014;-83
2023/09/30 02:45:04;;;;;;;11.45;5.22;;;13.90;99.90;;;;;;5016037;28;20072;-82
2023/09/30 02:47:31;;;;;;;9.35;4.93;;;13.90;99.90;;;;;;5000881;28;20109;-82
2023/09/30 02:49:58;;;;;;;8.27;4.95;;;13.90;99.90;;;;;;5000854;28;20033;-83
2023/09/30 02:52:28;;;;;;;8.77;5.25;;;13.90;99.90;;;;;;5017186;28;20017;-82
2023/09/30 02:54:54;;;;;;;7.45;4.78;;;13.90;99.90;;;;;;4984982;28;20017;-82
2023/09/30 02:57:20;;;;;;;7.82;5.18;;;13.90;99.90;;;;;;5016654;28;20475;-82
2023/09/30 02:59:47;;;;;;;9.20;5.45;;;14.00;99.90;;;;;;5017577;28;20033;-82
2023/09/30 03:02:13;;;;;;;9.02;4.82;;;14.00;99.90;;;;;;5000665;28;20025;-82
2023/09/30 03:04:38;;;;;;;8.93;5.00;;;14.00;99.90;;;;;;5017015;28;20040;-83
2023/09/30 03:07:05;;;;;;;7.88;4.90;;;14.00;99.90;;;;;;5000457;28;20112;-83
2023/09/30 03:09:31;;;;;;;7.85;4.78;;;14.00;99.90;;;;;;5000638;28;20033;-82
2023/09/30 03:11:59;;;;;;;6.63;4.53;;;14.00;99.90;;;;;;5034639;28;20021;-83
2023/09/30 03:14:24;;;;;;;9.55;5.25;;;14.00;99.90;;;;;;4984730;28;20107;-83
2023/09/30 03:16:50;;;;;;;8.35;4.80;;;14.00;99.90;;;;;;5016957;28;20373;-83
2023/09/30 03:19:16;;;;;;;8.85;4.55;;;14.10;99.90;;;;;;5034049;28;20433;-82
2023/09/30 03:21:42;;;;;;;8.32;5.18;;;14.10;99.90;;;;;;5016713;28;20377;-82
2023/09/30 03:24:08;;;;;;;9.18;4.95;;;14.20;99.90;;;;;;5016636;28;20071;-82
2023/09/30 03:26:35;;;;;;;8.07;5.20;;;14.20;99.90;;;;;;5016177;28;20400;-83
2023/09/30 03:29:01;;;;;;;7.78;5.18;;;14.20;99.90;;;;;;5034060;28;20393;-83
2023/09/30 03:31:26;;;;;;;9.00;5.50;;;14.10;99.90;;;;;;5016499;28;20044;-82
2023/09/30 03:33:53;;;;;;;7.57;5.15;;;14.20;99.90;;;;;;5016813;28;20032;-82
2023/09/30 03:36:25;;;;;;;7.47;4.55;;;14.20;99.90;;;;;;5000001;28;20071;-82
2023/09/30 03:38:59;;;;;;;7.03;4.95;;;14.20;99.90;;;;;;5033777;28;20139;-82
2023/09/30 03:41:24;;;;;;;8.55;5.10;;;14.20;99.90;;;;;;4985040;28;20045;-83
2023/09/30 03:43:50;;;;;;;8.63;5.65;;;14.20;99.90;;;;;;5016876;28;20037;-82
2023/09/30 03:46:16;;;;;;;9.55;5.75;;;14.20;99.90;;;;;;5016621;28;20013;-82
2023/09/30 03:48:43;;;;;;;8.95;6.18;;;14.20;99.90;;;;;;4984602;28;20473;-82
2023/09/30 03:51:15;;;;;;;8.25;5.40;;;14.20;99.90;;;;;;5007277;28;20044;-82
2023/09/30 03:53:44;;;;;;;9.65;5.72;;;14.20;99.90;;;;;;5040827;28;20025;-82
2023/09/30 03:56:14;;;;;;;8.77;5.78;;;14.20;99.90;;;;;;5008308;28;20160;-84
2023/09/30 03:58:44;;;;;;;10.13;6.03;;;14.20;99.90;;;;;;5040169;28;20073;-83
2023/09/30 04:01:11;;;;;;;9.32;5.72;;;14.20;99.90;;;;;;5007087;28;20035;-82
2023/09/30 04:03:39;;;;;;;8.63;5.68;;;14.30;99.90;;;;;;5017095;28;20033;-82
2023/09/30 04:06:05;;;;;;;8.90;5.82;;;14.20;99.90;;;;;;5000520;28;20017;-83
2023/09/30 04:08:33;;;;;;;8.40;5.32;;;14.30;99.90;;;;;;5016028;28;20026;-83
2023/09/30 04:10:59;;;;;;;7.53;5.30;;;14.20;99.90;;;;;;5000446;28;20018;-82
2023/09/30 04:13:25;;;;;;;9.75;5.80;;;14.20;99.90;;;;;;4999717;28;20024;-82
2023/09/30 04:15:51;;;;;;;7.95;5.63;;;14.20;99.90;;;;;;4999856;28;20021;-82
2023/09/30 04:18:20;;;;;;;8.43;5.75;;;14.20;99.90;;;;;;4999048;28;20049;-82
2023/09/30 04:20:46;;;;;;;10.82;6.15;;;14.30;99.90;;;;;;4999431;28;20036;-82
2023/09/30 04:23:13;;;;;;;8.50;6.10;;;14.30;99.90;;;;;;5015681;28;20389;-82
2023/09/30 04:25:38;;;;;;;9.32;6.05;;;14.20;99.90;;;;;;5033152;28;20025;-83
2023/09/30 04:28:04;;;;;;;9.13;5.90;;;14.20;99.90;;;;;;5015244;28;20038;-83
2023/09/30 04:30:32;;;;;;;7.43;5.45;;;14.20;99.90;;;;;;5015657;28;20105;-83
2023/09/30 04:33:01;;;;;;;7.60;5.65;;;14.20;99.90;;;;;;5016469;28;20025;-82
2023/09/30 04:35:26;;;;;;;7.82;5.95;;;14.30;99.90;;;;;;5015521;28;20033;-82
2023/09/30 04:37:52;;;;;;;7.38;5.43;;;14.20;99.90;;;;;;5015708;28;20021;-82
2023/09/30 04:40:21;;;;;;;9.95;6.10;;;14.20;99.90;;;;;;4998893;28;20057;-82
2023/09/30 04:42:47;;;;;;;8.40;6.13;;;14.20;99.90;;;;;;4999222;28;20025;-82
2023/09/30 04:45:16;;;;;;;8.82;5.93;;;14.30;99.90;;;;;;4999436;28;20021;-82
2023/09/30 04:47:44;;;;;;;10.48;6.63;;;14.30;99.90;;;;;;5015939;28;20018;-83
2023/09/30 04:50:11;;;;;;;10.05;6.38;;;14.30;99.90;;;;;;5015355;28;20117;-82
2023/09/30 04:52:38;;;;;;;9.50;7.05;;;14.30;99.90;;;;;;5015079;28;20132;-82
2023/09/30 04:55:05;;;;;;;10.48;6.88;;;14.30;99.90;;;;;;4999285;28;20365;-82
2023/09/30 04:57:31;;;;;;;9.93;7.22;;;14.30;99.90;;;;;;5032737;28;20576;-82
2023/09/30 05:00:00;;;;;;;10.15;6.97;;;14.30;99.90;;;;;;5015748;28;20069;-83
2023/09/30 05:02:27;;;;;;;11.27;7.18;;;14.30;99.90;;;;;;5033004;28;20373;-83
2023/09/30 05:04:53;;;;;;;10.07;7.18;;;14.30;99.90;;;;;;5015598;28;20465;-82
2023/09/30 05:07:22;;;;;;;11.93;7.38;;;14.30;99.90;;;;;;5033331;28;20126;-82
2023/09/30 05:09:48;;;;;;;8.88;7.10;;;14.40;99.90;;;;;;5019578;28;20532;-82
2023/09/30 05:12:14;;;;;;;10.85;7.18;;;14.30;99.90;;;;;;5002885;28;20064;-82
2023/09/30 05:14:40;;;;;;;9.85;7.57;;;14.40;99.90;;;;;;4986694;28;20468;-82
2023/09/30 05:17:08;;;;;;;9.00;7.68;;;14.30;99.90;;;;;;5019732;28;20033;-83
2023/09/30 05:19:33;;;;;;;9.52;7.10;;;14.40;99.90;;;;;;5019625;28;20021;-82
2023/09/30 05:22:00;;;;;;;10.13;6.80;;;14.40;99.90;;;;;;4986821;28;20036;-82
2023/09/30 05:24:27;;;;;;;9.95;6.60;;;14.40;99.90;;;;;;5019357;28;20030;-83
2023/09/30 05:26:53;;;;;;;8.35;6.80;;;14.40;99.90;;;;;;5019802;28;20021;-82
2023/09/30 05:29:20;;;;;;;9.95;7.28;;;14.40;99.90;;;;;;5020285;28;20025;-82
2023/09/30 05:31:46;;;;;;;9.10;6.38;;;14.40;99.90;;;;;;5021899;28;20064;-83
2023/09/30 05:34:11;;;;;;;9.77;7.05;;;14.40;99.90;;;;;;5043621;28;20025;-83
2023/09/30 05:36:37;;;;;;;9.93;6.93;;;14.40;99.90;;;;;;5060321;28;20030;-83
2023/09/30 05:39:04;;;;;;;9.23;6.90;;;14.40;99.90;;;;;;5043124;28;20076;-83
2023/09/30 05:41:32;;;;;;;10.48;7.38;;;14.40;99.90;;;;;;5006992;28;20049;-79
2023/09/30 05:43:59;;;;;;;10.25;7.75;;;14.40;99.90;;;;;;5021463;28;20072;-82
2023/09/30 05:46:27;;;;;;;9.00;6.82;;;14.40;99.90;;;;;;5019126;28;20052;-82
2023/09/30 05:48:53;;;;;;;9.23;6.50;;;14.40;99.90;;;;;;5018792;28;20035;-82
2023/09/30 05:51:18;;;;;;;10.40;7.30;;;14.40;99.90;;;;;;5035826;28;20017;-83
2023/09/30 05:53:47;;;;;;;10.52;7.22;;;14.40;99.90;;;;;;5036009;28;20029;-82
2023/09/30 05:56:14;;;;;;;8.82;6.55;;;14.40;99.90;;;;;;5035856;28;20025;-82
2023/09/30 05:58:41;;;;;;;10.52;7.25;;;14.40;99.90;;;;;;5001722;28;20144;-83
2023/09/30 06:01:10;;;;;;;10.85;7.30;;;14.40;99.90;;;;;;5001395;28;20040;-84
2023/09/30 06:03:39;;;;;;;11.23;7.40;;;14.40;99.90;;;;;;5017211;28;20041;-84
2023/09/30 06:06:12;;;;;;;10.90;7.72;;;14.40;99.90;;;;;;5001846;28;20385;-83
2023/09/30 06:08:38;;;;;;;10.48;7.70;;;14.40;99.90;;;;;;5017132;28;20018;-83
2023/09/30 06:11:03;;;;;;;13.25;7.88;;;14.40;99.90;;;;;;5017814;28;20021;-83
2023/09/30 06:13:31;;;;;;;13.05;8.25;;;14.40;99.90;;;;;;5035252;28;20096;-83
2023/09/30 06:15:57;;;;;;;10.77;7.32;;;14.40;99.90;;;;;;5018049;28;20018;-83
2023/09/30 06:18:23;;;;;;;9.95;7.07;;;14.50;99.90;;;;;;5001163;28;20366;-83
2023/09/30 06:20:49;;;;;;;11.70;7.60;;;14.50;99.90;;;;;;5017377;28;20029;-83
2023/09/30 06:23:16;;;;;;;9.93;7.07;;;14.50;99.90;;;;;;5001665;28;20029;-83
2023/09/30 06:25:42;;;;;;;10.10;7.15;;;14.50;99.90;;;;;;5035620;28;20451;-83
2023/09/30 06:28:08;;;;;;;9.48;7.13;;;14.50;99.90;;;;;;5001396;28;20022;-82
2023/09/30 06:30:34;;;;;;;11.02;7.65;;;14.50;99.90;;;;;;5001031;28;20536;-82
2023/09/30 06:33:00;;;;;;;11.80;8.10;;;14.50;99.90;;;;;;5017518;28;20053;-83
2023/09/30 06:35:27;;;;;;;11.50;7.00;;;14.50;99.90;;;;;;5001417;28;20033;-84
2023/09/30 06:37:53;;;;;;;11.68;7.28;;;14.60;99.90;;;;;;5017775;28;20025;-83
2023/09/30 06:40:18;;;;;;;11.13;7.53;;;14.60;99.90;;;;;;5017046;28;20053;-83
2023/09/30 06:42:44;;;;;;;9.00;7.05;;;14.60;99.90;;;;;;4984748;28;20094;-82
2023/09/30 06:45:10;;;;;;;9.15;6.80;;;14.60;99.90;;;;;;5016995;28;20453;-83
2023/09/30 06:47:37;;;;;;;8.45;6.60;;;14.60;99.90;;;;;;5000957;28;20017;-83
2023/09/30 06:50:16;;;;;;;6.95;5.80;;;14.70;99.90;;;;;;5017799;28;20082;-83
2023/09/30 06:52:42;;;;;;;9.65;6.65;;;14.70;99.90;;;;;;4985778;28;20449;-83
2023/09/30 06:55:08;;;;;;;8.60;6.28;;;14.70;99.90;;;;;;5034813;28;20028;-82
2023/09/30 06:57:36;;;;;;;9.10;6.57;;;14.70;99.90;;;;;;5035336;28;20018;-83
2023/09/30 07:00:09;;;;;;;11.50;6.35;;;14.70;99.90;;;;;;5017433;28;20029;-83
2023/09/30 07:02:36;;;;;;;6.78;5.43;;;14.80;99.90;;;;;;5017677;28;20022;-83
2023/09/30 07:05:05;;;;;;;7.90;5.80;;;14.80;99.90;;;;;;5016737;28;20021;-84
2023/09/30 07:07:31;;;;;;;7.22;5.93;;;14.80;99.90;;;;;;5000868;28;20036;-83
2023/09/30 07:09:56;;;;;;;9.80;6.28;;;14.90;99.90;;;;;;5001119;28;20465;-83
2023/09/30 07:12:22;;;;;;;10.35;6.30;;;14.90;99.90;;;;;;5027059;28;20030;-84
2023/09/30 07:14:48;;;;;;;9.20;5.95;;;14.90;99.90;;;;;;5009257;28;20101;-84
2023/09/30 07:17:14;;;;;;;10.80;6.80;;;15.00;99.90;;;;;;5041742;28;20033;-82
2023/09/30 07:19:39;;;;;;;10.43;6.75;;;15.00;99.90;;;;;;5042159;28;20022;-83
2023/09/30 07:22:05;;;;;;;10.68;7.53;;;15.10;99.90;;;;;;5040799;28;20032;-83
2023/09/30 07:24:31;;;;;;;10.15;6.97;;;15.10;99.90;;;;;;5003427;28;20025;-83
2023/09/30 07:26:56;;;;;;;10.63;6.95;;;15.10;99.90;;;;;;5017659;28;20465;-83
2023/09/30 07:29:23;;;;;;;9.07;6.63;;;15.20;99.90;;;;;;4984742;28;20029;-83
2023/09/30 07:31:50;;;;;;;10.35;6.53;;;15.20;99.90;;;;;;5000003;28;20021;-83
2023/09/30 07:34:16;;;;;;;12.02;7.00;;;15.30;99.90;;;;;;5016596;28;20025;-83
2023/09/30 07:36:42;;;;;;;10.82;7.10;;;15.30;99.90;;;;;;4984086;28;20032;-83
2023/09/30 07:39:08;;;;;;;10.35;6.60;;;15.40;99.90;;;;;;5000354;28;20093;-83
2023/09/30 07:41:37;;;;;;;10.60;7.15;;;15.40;99.90;;;;;;4984161;28;20167;-83
2023/09/30 07:44:04;;;;;;;11.82;7.47;;;15.50;99.90;;;;;;5016350;28;20160;-83
2023/09/30 07:46:30;;;;;;;11.50;7.65;;;15.50;99.90;;;;;;4984209;28;20108;-84
2023/09/30 07:48:58;;;;;;;10.02;7.25;;;15.60;99.90;;;;;;5034008;28;20028;-84
2023/09/30 07:51:24;;;;;;;13.07;7.75;;;15.60;99.90;;;;;;5034092;28;20030;-83
2023/09/30 07:53:50;;;;;;;10.43;6.93;;;15.60;99.90;;;;;;5000151;28;20037;-83
2023/09/30 07:56:16;;;;;;;12.25;7.53;;;15.70;99.90;;;;;;5000208;28;20025;-83
2023/09/30 07:58:42;;;;;;;13.32;7.65;;;15.70;99.90;;;;;;5016320;28;20492;-82
2023/09/30 08:01:11;;;;;;;11.35;7.50;;;15.80;99.90;;;;;;5016041;28;20041;-84
2023/09/30 08:03:36;;;;;;;13.48;7.93;;;15.90;99.90;;;;;;5016306;28;20406;-84
2023/09/30 08:06:03;;;;;;;12.65;7.97;;;15.90;99.90;;;;;;4999486;28;20059;-83
2023/09/30 08:08:29;;;;;;;12.90;7.68;;;16.00;99.90;;;;;;4999749;28;20026;-83
2023/09/30 08:10:56;;;;;;;15.23;7.57;;;16.00;99.90;;;;;;4999855;28;20034;-84
2023/09/30 08:13:24;;;;;;;12.88;7.32;;;16.10;99.90;;;;;;5033782;28;20018;-84
2023/09/30 08:15:51;;;;;;;9.95;7.50;;;16.10;99.90;;;;;;4983535;28;20013;-83
2023/09/30 08:18:17;;;;;;;9.95;6.75;;;16.20;99.90;;;;;;5016002;28;20025;-84
2023/09/30 08:20:43;;;;;;;12.98;7.40;;;16.30;99.90;;;;;;5015950;28;20112;-84
2023/09/30 08:23:09;;;;;;;11.13;6.97;;;16.20;99.90;;;;;;5016272;28;20055;-84
2023/09/30 08:25:34;;;;;;;12.35;7.10;;;16.30;99.90;;;;;;5015866;28;20112;-84
2023/09/30 08:28:00;;;;;;;11.05;7.43;;;16.40;99.90;;;;;;5033421;28;20067;-84
2023/09/30 08:30:26;;;;;;;13.23;7.30;;;16.40;99.90;;;;;;4999446;28;20465;-84
2023/09/30 08:32:51;;;;;;;14.13;6.78;;;16.50;99.90;;;;;;5033667;28;20123;-83
2023/09/30 08:35:17;;;;;;;9.40;6.82;;;16.50;99.90;;;;;;4999639;28;20021;-84
2023/09/30 08:37:43;;;;;;;12.65;7.25;;;16.60;99.90;;;;;;5034022;28;20029;-84
2023/09/30 08:40:09;;;;;;;11.05;6.65;;;16.60;99.90;;;;;;4999546;28;20042;-83
2023/09/30 08:42:38;;;;;;;12.30;7.10;;;16.70;99.90;;;;;;4985441;28;20029;-84
2023/09/30 08:45:06;;;;;;;10.52;6.68;;;16.70;99.90;;;;;;5037432;28;20025;-84
2023/09/30 08:47:34;;;;;;;10.98;6.80;;;16.70;99.90;;;;;;5020011;28;20064;-84
2023/09/30 08:50:05;;;;;;;11.32;7.85;;;16.80;99.90;;;;;;5021015;28;20373;-84
2023/09/30 08:52:32;;;;;;;13.05;6.95;;;16.80;99.90;;;;;;4988936;28;20469;-84
2023/09/30 08:54:58;;;;;;;11.95;6.78;;;16.90;99.90;;;;;;5020328;28;20018;-84
2023/09/30 08:57:25;;;;;;;12.25;6.47;;;17.00;99.90;;;;;;5013531;28;20036;-84
2023/09/30 08:59:52;;;;;;;11.68;6.55;;;17.00;99.90;;;;;;5043114;28;20117;-83
2023/09/30 09:02:18;;;;;;;11.93;6.65;;;17.00;99.90;;;;;;5061404;28;20013;-83
2023/09/30 09:04:46;;;;;;;11.38;6.10;;;17.10;99.90;;;;;;5044343;28;20022;-84
2023/09/30 09:07:12;;;;;;;10.95;6.07;;;17.20;99.90;;;;;;5060078;28;20010;-83
2023/09/30 09:09:37;;;;;;;11.38;6.85;;;17.30;99.90;;;;;;5020361;28;20032;-84
2023/09/30 09:12:03;;;;;;;11.60;6.43;;;17.40;99.90;;;;;;5019449;28;20026;-84
2023/09/30 09:14:40;;;;;;;10.90;6.53;;;17.40;99.90;;;;;;5037382;28;20075;-84
2023/09/30 09:17:07;;;;;;;12.13;7.05;;;17.50;99.90;;;;;;5036616;28;20416;-84
2023/09/30 09:19:34;;;;;;;9.13;6.07;;;17.50;99.90;;;;;;5019252;28;20052;-84
2023/09/30 09:22:01;;;;;;;9.70;6.13;;;17.60;99.90;;;;;;5002757;28;20112;-84
2023/09/30 09:24:39;;;;;;;10.27;6.38;;;17.60;99.90;;;;;;5019327;28;20116;-84
2023/09/30 09:27:09;;;;;;;9.55;6.00;;;17.70;99.90;;;;;;5002583;28;20462;-84
2023/09/30 09:29:36;;;;;;;11.02;5.82;;;17.70;99.90;;;;;;5019089;28;20014;-84
2023/09/30 09:32:12;;;;;;;13.88;6.03;;;17.80;99.90;;;;;;5019129;28;20053;-84
2023/09/30 09:34:45;;;;;;;10.27;5.82;;;17.80;99.90;;;;;;5019050;28;20025;-84
2023/09/30 09:37:18;;;;;;;9.70;6.38;;;17.90;99.90;;;;;;5018507;28;20373;-84
2023/09/30 09:39:57;;;;;;;10.00;5.70;;;17.90;99.90;;;;;;5002951;28;20029;-84
2023/09/30 09:42:28;;;;;;;10.18;6.05;;;17.90;99.90;;;;;;5018681;28;20362;-83
2023/09/30 09:45:03;;;;;;;10.90;5.65;;;18.00;99.90;;;;;;5002377;28;20035;-84
2023/09/30 09:47:31;;;;;;;9.45;5.28;;;18.10;99.90;;;;;;5036488;28;20014;-84
2023/09/30 09:49:57;;;;;;;11.32;5.82;;;18.10;99.90;;;;;;5018396;28;20412;-84
2023/09/30 09:52:24;;;;;;;12.35;6.50;;;18.10;99.90;;;;;;5035926;28;20526;-84
2023/09/30 09:54:51;;;;;;;11.57;6.22;;;18.20;99.90;;;;;;5035606;28;20105;-84
2023/09/30 09:57:21;;;;;;;10.88;4.85;;;18.20;99.90;;;;;;4985355;28;20040;-84
2023/09/30 09:59:47;;;;;;;9.40;5.38;;;18.30;99.90;;;;;;5002815;28;20033;-84
2023/09/30 10:02:14;;;;;;;7.70;5.00;;;18.30;99.90;;;;;;5035719;28;20381;-84
2023/09/30 10:04:44;;;;;;;9.40;5.45;;;18.40;99.90;;;;;;5036309;28;20103;-84
2023/09/30 10:07:33;;;;;;;9.35;4.95;;;18.40;99.90;;;;;;5002289;28;20053;-84
2023/09/30 10:10:02;;;;;;;8.48;5.20;;;18.50;99.90;;;;;;5018554;28;20053;-84
2023/09/30 10:12:35;;;;;;;11.68;5.40;;;18.60;99.90;;;;;;5018287;28;20028;-84
2023/09/30 10:15:01;;;;;;;9.88;5.53;;;18.60;99.90;;;;;;5017945;28;20025;-84
2023/09/30 10:18:12;;;;;;;11.55;5.30;;;18.70;99.90;;;;;;5001946;28;20045;-84
2023/09/30 10:20:44;;;;;;;9.68;5.05;;;18.70;99.90;;;;;;5035894;28;20341;-84
2023/09/30 10:23:24;;;;;;;10.27;4.68;;;18.80;99.90;;;;;;5017934;28;20021;-84
2023/09/30 10:25:57;;;;;;;11.15;4.78;;;18.80;99.90;;;;;;5018060;28;20017;-84
2023/09/30 10:28:32;;;;;;;10.93;5.57;;;18.90;99.90;;;;;;5017993;28;20025;-84
2023/09/30 10:31:24;;;;;;;8.10;4.55;;;18.90;99.90;;;;;;5017577;28;20062;-84
2023/09/30 10:34:02;;;;;;;9.02;4.50;;;19.00;99.90;;;;;;5018050;28;20013;-84
2023/09/30 10:36:40;;;;;;;8.20;3.97;;;19.00;99.90;;;;;;5018340;28;20032;-84
2023/09/30 10:39:13;;;;;;;10.73;4.18;;;19.00;99.90;;;;;;5017666;28;20021;-84
2023/09/30 10:41:38;;;;;;;6.55;3.63;;;19.10;99.90;;;;;;5018138;28;20046;-84
2023/09/30 10:44:25;;;;;;;7.75;3.88;;;19.20;99.90;;;;;;5018646;28;20052;-84
2023/09/30 10:46:58;;;;;;;9.55;4.15;;;19.20;99.90;;;;;;5035000;28;20029;-83
2023/09/30 10:49:24;;;;;;;7.70;3.40;;;19.30;99.90;;;;;;5042601;28;20033;-84
2023/09/30 10:51:55;;;;;;;7.35;4.07;;;19.40;99.90;;;;;;5042441;28;20021;-83
2023/09/30 10:54:28;;;;;;;6.32;2.95;;;19.40;99.90;;;;;;5041720;28;20005;-84
2023/09/30 10:56:55;;;;;;;7.75;3.15;;;19.40;99.90;;;;;;5032557;28;20067;-84
2023/09/30 10:59:22;;;;;;;6.97;3.78;;;19.40;99.90;;;;;;5020151;28;20058;-84
2023/09/30 11:01:49;;;;;;;8.60;3.60;;;19.40;99.90;;;;;;5001326;28;20040;-84
2023/09/30 11:04:15;;;;;;;7.45;4.03;;;19.50;99.90;;;;;;5034953;28;20415;-84
2023/09/30 11:06:42;;;;;;;8.13;3.15;;;19.50;99.90;;;;;;4999905;28;20021;-84
2023/09/30 11:09:13;;;;;;;6.50;2.83;;;19.50;99.90;;;;;;5000892;28;20021;-84
2023/09/30 11:11:48;;;;;;;6.78;2.95;;;19.50;99.90;;;;;;5001610;28;20022;-84
2023/09/30 11:14:21;;;;;;;8.27;3.40;;;19.50;99.90;;;;;;5016825;28;20021;-84
2023/09/30 11:16:48;;;;;;;6.82;2.85;;;19.50;99.90;;;;;;5017108;28;20032;-84
2023/09/30 11:19:15;;;;;;;8.23;2.97;;;19.60;99.90;;;;;;5016759;28;20034;-85
2023/09/30 11:21:41;;;;;;;7.32;3.00;;;19.60;99.90;;;;;;5034679;28;20013;-84
2023/09/30 11:24:08;;;;;;;7.50;2.95;;;19.70;99.90;;;;;;5000529;28;20013;-84
2023/09/30 11:26:41;;;;;;;6.47;2.63;;;19.70;99.70;;;;;;5094113;27;1386609;-84
2023/09/30 11:29:08;;;;;;;7.05;3.05;;;19.70;99.50;;;;;;5111334;28;20032;-85
2023/09/30 11:31:34;;;;;;;6.60;2.60;;;19.70;99.40;;;;;;5092888;28;20378;-85
2023/09/30 11:34:03;;;;;;;5.60;2.90;;;19.70;99.30;;;;;;5076032;28;20035;-85
2023/09/30 11:36:31;;;;;;;6.22;2.55;;;19.80;99.20;;;;;;5076263;28;20106;-85
2023/09/30 11:38:57;;;;;;;5.82;2.53;;;19.80;99.10;;;;;;5083701;28;20035;-85
2023/09/30 11:41:31;;;;;;;7.35;2.42;;;19.80;99.00;;;;;;5072522;28;20025;-85
2023/09/30 11:44:12;;;;;;;6.95;3.05;;;19.70;98.90;;;;;;5072905;28;20027;-85
2023/09/30 11:46:48;;;;;;;5.43;2.33;;;19.70;98.60;;;;;;5090540;28;20024;-84
2023/09/30 11:49:40;;;;;;;6.63;2.70;;;19.70;98.40;;;;;;5090495;28;20031;-84
2023/09/30 11:52:08;;;;;;;5.85;2.42;;;19.70;98.50;;;;;;5074647;28;20023;-84
2023/09/30 11:54:43;;;;;;;8.57;2.67;;;19.70;98.40;;;;;;5072089;28;20107;-85
2023/09/30 11:57:15;;;;;;;6.55;2.90;;;19.70;98.50;;;;;;5055952;28;20024;-85
2023/09/30 11:59:42;;;;;;;5.38;2.55;;;19.60;98.10;;;;;;5085450;28;20451;-85
2023/09/30 12:02:09;;;;;;;8.70;2.83;;;19.70;98.10;;;;;;5076050;28;20036;-85
2023/09/30 12:04:35;;;;;;;5.78;2.42;;;19.70;98.10;;;;;;5075160;28;20524;-85
2023/09/30 12:07:01;;;;;;;4.25;2.40;;;19.60;98.00;;;;;;5092635;28;20032;-85
2023/09/30 12:09:28;;;;;;;4.95;2.38;;;19.70;97.90;;;;;;5062640;28;20028;-85
2023/09/30 12:11:55;;;;;;;7.35;2.53;;;19.70;97.80;;;;;;5082462;28;20044;-84
2023/09/30 12:14:21;;;;;;;5.90;2.10;;;19.70;97.60;;;;;;5071639;28;20032;-85
2023/09/30 12:16:47;;;;;;;6.72;2.55;;;19.80;97.70;;;;;;5055392;28;20027;-85
2023/09/30 12:19:20;;;;;;;6.53;2.70;;;19.80;97.60;;;;;;5072063;28;20028;-85
2023/09/30 12:21:47;;;;;;;5.18;2.40;;;19.80;97.60;;;;;;5055395;28;20046;-85
2023/09/30 12:24:19;;;;;;;7.88;3.08;;;19.80;97.80;;;;;;5062971;28;20030;-85
2023/09/30 12:26:48;;;;;;;8.35;2.60;;;19.80;97.80;;;;;;5060111;28;20460;-85
2023/09/30 12:29:18;;;;;;;7.38;2.40;;;19.80;97.70;;;;;;5075516;28;20024;-85
2023/09/30 12:31:47;;;;;;;5.95;2.47;;;19.90;97.60;;;;;;5092742;28;20364;-85
2023/09/30 12:34:13;;;;;;;6.45;2.42;;;19.90;97.50;;;;;;5075896;28;20032;-85
2023/09/30 12:36:39;;;;;;;5.82;2.45;;;19.90;97.60;;;;;;5067318;28;20044;-85
2023/09/30 12:39:10;;;;;;;5.70;2.45;;;19.90;97.70;;;;;;5059376;28;20008;-85
2023/09/30 12:41:43;;;;;;;5.93;2.45;;;19.90;97.80;;;;;;5067350;28;20009;-85
2023/09/30 12:44:10;;;;;;;7.03;2.58;;;19.90;97.80;;;;;;5075841;28;20034;-85
2023/09/30 12:46:36;;;;;;;6.75;2.95;;;19.90;97.80;;;;;;5103289;28;20018;-85